Aérodrome :
LOGIN :

S'inscrire | Disclaimer

   EN    FR    IT 

 










Légende :    VFR   VFR Marginal   IFR   IFR Intensif   IFR Très Intensif
Visi : 
Plafond : 
>= 8 km
>= 3000ft
5 à 8 km
1000 à 3000 ft
1500m à 5 km
500 à 1000 ft
800 à 1500m
200 à 500 ft
< 800m
< 200 ft
Symboles :   Orages  Brouillard  Fortes neiges  Fortes précipitations  Vent > 20 kt
SIGMETs :   Divers  Orages  Givrage  Turbulence  Onde Orograph.  Cendres Volcan.







- Altitude de l'aérodrome : 46 ft
- Code IATA : SNN


EINN - Shannon

DERNIER METAR :
  • 221830Z 00000KT 9999 FEW030 SCT250 13/10 Q1013 NOSIG

METARs EXPIRÉS :
  • 221800Z 24004KT 9999 FEW030 SCT250 14/10 Q1013 NOSIG
  • 221730Z 26003KT 9999 FEW030 SCT200 15/10 Q1013 NOSIG
  • 221700Z 23007KT 9999 FEW030 15/10 Q1013 NOSIG
  • 221630Z 25006KT 9999 FEW028 SCT200 16/09 Q1013 NOSIG
  • 221600Z 26007KT 9999 FEW028 BKN250 16/09 Q1013 NOSIG

TAF TAF EINN
Valide du 22 à 18h jusqu'au 23 à 18h UTC


221700Z 2218/2318 26010KT 9999 FEW017 SCT025
BECMG 2219/2222 15010KT SCT010 BKN015
TEMPO 2223/2306 5000 -DZ BKN007
BECMG 2304/2306 16017G28KT
BECMG 2307/2310 FEW015 BKN022
TEMPO 2309/2313 16022G34KT
BECMG 2315/2318 17013KT
Pas de NOTAMs connus pour ce terrain.



MET'MAP, la Météo Aéronautique d'un coup d'oeil ! - Copyright ORBIFLY Décembre 2007 - Disclaimer

ORBIFLY MET'MAP TEAM :

Programmation & Développement : Alexandra Zaïnal
Conception & Développement : Baudouin d'Aumeries
Co-Programmation & Développement : Marc-Olivier Méhu
Soutien technique & logistique : Manuel Goepfert

Contact : metmap@orbifly.com




SOURCES & CREDITS :

   NOAA